sensor_id;sensor_type;location;lat;lon;timestamp;P1;durP1;ratioP1;P2;durP2;ratioP2
31018;SDS011;17689;45.610;5.858;2022-07-23T00:00:31;9.70;;;7.07;;
31018;SDS011;17689;45.610;5.858;2022-07-23T00:02:57;8.40;;;5.90;;
31018;SDS011;17689;45.610;5.858;2022-07-23T00:05:23;9.73;;;6.53;;
31018;SDS011;17689;45.610;5.858;2022-07-23T00:07:50;7.43;;;5.83;;
31018;SDS011;17689;45.610;5.858;2022-07-23T00:10:16;8.30;;;6.30;;
31018;SDS011;17689;45.610;5.858;2022-07-23T00:12:42;9.90;;;6.40;;
31018;SDS011;17689;45.610;5.858;2022-07-23T00:15:09;8.00;;;6.30;;
31018;SDS011;17689;45.610;5.858;2022-07-23T00:17:36;8.97;;;5.50;;
31018;SDS011;17689;45.610;5.858;2022-07-23T00:20:02;6.73;;;5.60;;
31018;SDS011;17689;45.610;5.858;2022-07-23T00:22:28;7.10;;;5.80;;
31018;SDS011;17689;45.610;5.858;2022-07-23T00:24:55;7.07;;;5.83;;
31018;SDS011;17689;45.610;5.858;2022-07-23T00:27:21;7.23;;;6.23;;
31018;SDS011;17689;45.610;5.858;2022-07-23T00:29:48;6.80;;;5.53;;
31018;SDS011;17689;45.610;5.858;2022-07-23T00:32:14;6.50;;;5.57;;
31018;SDS011;17689;45.610;5.858;2022-07-23T00:34:40;8.57;;;6.10;;
31018;SDS011;17689;45.610;5.858;2022-07-23T00:37:06;7.07;;;6.17;;
31018;SDS011;17689;45.610;5.858;2022-07-23T00:39:33;7.13;;;6.27;;
31018;SDS011;17689;45.610;5.858;2022-07-23T00:41:59;7.03;;;6.20;;
31018;SDS011;17689;45.610;5.858;2022-07-23T00:44:26;7.63;;;6.53;;
31018;SDS011;17689;45.610;5.858;2022-07-23T00:46:54;7.60;;;5.50;;
31018;SDS011;17689;45.610;5.858;2022-07-23T00:49:21;7.47;;;5.63;;
31018;SDS011;17689;45.610;5.858;2022-07-23T00:51:47;6.77;;;6.07;;
31018;SDS011;17689;45.610;5.858;2022-07-23T00:54:14;7.13;;;5.90;;
31018;SDS011;17689;45.610;5.858;2022-07-23T00:56:41;7.67;;;5.80;;
31018;SDS011;17689;45.610;5.858;2022-07-23T00:59:08;8.23;;;6.17;;
31018;SDS011;17689;45.610;5.858;2022-07-23T01:01:35;11.93;;;6.10;;
31018;SDS011;17689;45.610;5.858;2022-07-23T01:04:01;5.70;;;5.20;;
31018;SDS011;17689;45.610;5.858;2022-07-23T01:06:27;7.53;;;5.63;;
31018;SDS011;17689;45.610;5.858;2022-07-23T01:08:54;7.23;;;6.17;;
31018;SDS011;17689;45.610;5.858;2022-07-23T01:11:21;6.70;;;5.77;;
31018;SDS011;17689;45.610;5.858;2022-07-23T01:13:48;6.77;;;5.90;;
31018;SDS011;17689;45.610;5.858;2022-07-23T01:16:15;6.37;;;5.67;;
31018;SDS011;17689;45.610;5.858;2022-07-23T01:18:41;6.30;;;5.40;;
31018;SDS011;17689;45.610;5.858;2022-07-23T01:21:08;9.23;;;5.90;;
31018;SDS011;17689;45.610;5.858;2022-07-23T01:23:34;7.07;;;5.77;;
31018;SDS011;17689;45.610;5.858;2022-07-23T01:26:00;7.47;;;5.80;;
31018;SDS011;17689;45.610;5.858;2022-07-23T01:28:27;8.43;;;5.83;;
31018;SDS011;17689;45.610;5.858;2022-07-23T01:30:53;7.70;;;6.10;;
31018;SDS011;17689;45.610;5.858;2022-07-23T01:33:19;8.00;;;5.83;;
31018;SDS011;17689;45.610;5.858;2022-07-23T01:35:45;10.97;;;6.07;;
31018;SDS011;17689;45.610;5.858;2022-07-23T01:38:11;12.93;;;6.33;;
31018;SDS011;17689;45.610;5.858;2022-07-23T01:40:38;12.13;;;7.00;;
31018;SDS011;17689;45.610;5.858;2022-07-23T01:43:04;7.80;;;6.00;;
31018;SDS011;17689;45.610;5.858;2022-07-23T01:45:30;9.07;;;6.40;;
31018;SDS011;17689;45.610;5.858;2022-07-23T01:47:56;7.50;;;6.70;;
31018;SDS011;17689;45.610;5.858;2022-07-23T01:50:22;7.30;;;6.60;;
31018;SDS011;17689;45.610;5.858;2022-07-23T01:52:49;7.37;;;6.73;;
31018;SDS011;17689;45.610;5.858;2022-07-23T01:55:15;7.60;;;6.20;;
31018;SDS011;17689;45.610;5.858;2022-07-23T01:57:41;8.40;;;6.97;;
31018;SDS011;17689;45.610;5.858;2022-07-23T02:00:07;7.80;;;7.00;;
31018;SDS011;17689;45.610;5.858;2022-07-23T02:02:34;8.33;;;6.70;;
31018;SDS011;17689;45.610;5.858;2022-07-23T02:05:00;7.60;;;6.80;;
31018;SDS011;17689;45.610;5.858;2022-07-23T02:07:26;7.87;;;6.30;;
31018;SDS011;17689;45.610;5.858;2022-07-23T02:09:52;9.23;;;6.60;;
31018;SDS011;17689;45.610;5.858;2022-07-23T02:12:18;8.87;;;6.67;;
31018;SDS011;17689;45.610;5.858;2022-07-23T02:14:45;8.10;;;6.40;;
31018;SDS011;17689;45.610;5.858;2022-07-23T02:17:11;7.97;;;6.20;;
31018;SDS011;17689;45.610;5.858;2022-07-23T02:19:37;8.73;;;6.40;;
31018;SDS011;17689;45.610;5.858;2022-07-23T02:22:03;7.47;;;5.97;;
31018;SDS011;17689;45.610;5.858;2022-07-23T02:24:29;7.10;;;6.47;;
31018;SDS011;17689;45.610;5.858;2022-07-23T02:26:55;7.70;;;6.10;;
31018;SDS011;17689;45.610;5.858;2022-07-23T02:29:22;7.43;;;6.10;;
31018;SDS011;17689;45.610;5.858;2022-07-23T02:31:48;6.93;;;6.10;;
31018;SDS011;17689;45.610;5.858;2022-07-23T02:34:14;6.77;;;6.07;;
31018;SDS011;17689;45.610;5.858;2022-07-23T02:36:40;9.17;;;6.50;;
31018;SDS011;17689;45.610;5.858;2022-07-23T02:39:06;8.03;;;6.63;;
31018;SDS011;17689;45.610;5.858;2022-07-23T02:41:33;8.23;;;6.80;;
31018;SDS011;17689;45.610;5.858;2022-07-23T02:43:59;8.63;;;7.03;;
31018;SDS011;17689;45.610;5.858;2022-07-23T02:46:25;7.50;;;6.43;;
31018;SDS011;17689;45.610;5.858;2022-07-23T02:48:51;8.13;;;6.70;;
31018;SDS011;17689;45.610;5.858;2022-07-23T02:51:17;7.67;;;6.83;;
31018;SDS011;17689;45.610;5.858;2022-07-23T02:53:43;8.43;;;7.13;;
31018;SDS011;17689;45.610;5.858;2022-07-23T02:56:09;7.90;;;7.10;;
31018;SDS011;17689;45.610;5.858;2022-07-23T02:58:36;10.83;;;7.00;;
31018;SDS011;17689;45.610;5.858;2022-07-23T03:01:02;8.93;;;7.43;;
31018;SDS011;17689;45.610;5.858;2022-07-23T03:03:28;7.70;;;6.90;;
31018;SDS011;17689;45.610;5.858;2022-07-23T03:05:55;7.90;;;7.10;;
31018;SDS011;17689;45.610;5.858;2022-07-23T03:08:21;9.30;;;7.00;;
31018;SDS011;17689;45.610;5.858;2022-07-23T03:10:47;8.40;;;7.33;;
31018;SDS011;17689;45.610;5.858;2022-07-23T03:13:13;12.67;;;7.13;;
31018;SDS011;17689;45.610;5.858;2022-07-23T03:15:39;8.87;;;7.40;;
31018;SDS011;17689;45.610;5.858;2022-07-23T03:18:05;7.60;;;6.80;;
31018;SDS011;17689;45.610;5.858;2022-07-23T03:20:31;8.07;;;7.27;;
31018;SDS011;17689;45.610;5.858;2022-07-23T03:22:58;8.03;;;7.00;;
31018;SDS011;17689;45.610;5.858;2022-07-23T03:25:24;8.50;;;6.77;;
31018;SDS011;17689;45.610;5.858;2022-07-23T03:27:50;7.30;;;6.60;;
31018;SDS011;17689;45.610;5.858;2022-07-23T03:30:16;8.20;;;7.33;;
31018;SDS011;17689;45.610;5.858;2022-07-23T03:32:42;8.13;;;7.10;;
31018;SDS011;17689;45.610;5.858;2022-07-23T03:35:09;8.50;;;6.83;;
31018;SDS011;17689;45.610;5.858;2022-07-23T03:37:36;9.07;;;7.30;;
31018;SDS011;17689;45.610;5.858;2022-07-23T03:40:02;8.83;;;7.80;;
31018;SDS011;17689;45.610;5.858;2022-07-23T03:42:28;7.80;;;6.83;;
31018;SDS011;17689;45.610;5.858;2022-07-23T03:44:54;9.67;;;6.83;;
31018;SDS011;17689;45.610;5.858;2022-07-23T03:47:20;8.07;;;7.20;;
31018;SDS011;17689;45.610;5.858;2022-07-23T03:49:47;7.67;;;6.97;;
31018;SDS011;17689;45.610;5.858;2022-07-23T03:52:13;7.87;;;6.97;;
31018;SDS011;17689;45.610;5.858;2022-07-23T03:54:40;8.57;;;7.70;;
31018;SDS011;17689;45.610;5.858;2022-07-23T03:57:06;8.97;;;7.60;;
31018;SDS011;17689;45.610;5.858;2022-07-23T03:59:32;8.27;;;7.50;;
31018;SDS011;17689;45.610;5.858;2022-07-23T04:01:58;8.10;;;7.33;;
31018;SDS011;17689;45.610;5.858;2022-07-23T04:04:24;10.67;;;7.37;;
31018;SDS011;17689;45.610;5.858;2022-07-23T04:06:50;8.10;;;7.30;;
31018;SDS011;17689;45.610;5.858;2022-07-23T04:09:17;9.17;;;7.70;;
31018;SDS011;17689;45.610;5.858;2022-07-23T04:11:43;13.47;;;7.70;;
31018;SDS011;17689;45.610;5.858;2022-07-23T04:14:09;11.50;;;7.73;;
31018;SDS011;17689;45.610;5.858;2022-07-23T04:16:35;8.80;;;7.37;;
31018;SDS011;17689;45.610;5.858;2022-07-23T04:19:01;11.23;;;7.53;;
31018;SDS011;17689;45.610;5.858;2022-07-23T04:21:29;8.60;;;7.70;;
31018;SDS011;17689;45.610;5.858;2022-07-23T04:23:55;8.90;;;7.50;;
31018;SDS011;17689;45.610;5.858;2022-07-23T04:26:22;8.13;;;7.33;;
31018;SDS011;17689;45.610;5.858;2022-07-23T04:28:48;9.20;;;7.10;;
31018;SDS011;17689;45.610;5.858;2022-07-23T04:31:14;9.77;;;7.87;;
31018;SDS011;17689;45.610;5.858;2022-07-23T04:33:40;8.20;;;7.40;;
31018;SDS011;17689;45.610;5.858;2022-07-23T04:36:06;9.53;;;7.50;;
31018;SDS011;17689;45.610;5.858;2022-07-23T04:38:33;9.93;;;7.47;;
31018;SDS011;17689;45.610;5.858;2022-07-23T04:40:59;10.90;;;6.90;;
31018;SDS011;17689;45.610;5.858;2022-07-23T04:43:25;8.50;;;7.47;;
31018;SDS011;17689;45.610;5.858;2022-07-23T04:45:52;8.90;;;7.70;;
31018;SDS011;17689;45.610;5.858;2022-07-23T04:48:18;8.77;;;7.87;;
31018;SDS011;17689;45.610;5.858;2022-07-23T04:50:44;11.10;;;8.37;;
31018;SDS011;17689;45.610;5.858;2022-07-23T04:53:10;8.33;;;7.47;;
31018;SDS011;17689;45.610;5.858;2022-07-23T04:55:36;9.03;;;8.23;;
31018;SDS011;17689;45.610;5.858;2022-07-23T04:58:03;10.83;;;7.87;;
31018;SDS011;17689;45.610;5.858;2022-07-23T05:00:29;10.90;;;7.80;;
31018;SDS011;17689;45.610;5.858;2022-07-23T05:02:55;7.97;;;7.27;;
31018;SDS011;17689;45.610;5.858;2022-07-23T05:05:21;9.90;;;7.47;;
31018;SDS011;17689;45.610;5.858;2022-07-23T05:07:47;12.17;;;7.60;;
31018;SDS011;17689;45.610;5.858;2022-07-23T05:10:13;9.27;;;7.97;;
31018;SDS011;17689;45.610;5.858;2022-07-23T05:12:40;9.13;;;7.70;;
31018;SDS011;17689;45.610;5.858;2022-07-23T05:15:06;8.17;;;7.37;;
31018;SDS011;17689;45.610;5.858;2022-07-23T05:17:32;9.77;;;7.60;;
31018;SDS011;17689;45.610;5.858;2022-07-23T05:19:58;8.60;;;7.70;;
31018;SDS011;17689;45.610;5.858;2022-07-23T05:22:24;9.13;;;8.17;;
31018;SDS011;17689;45.610;5.858;2022-07-23T05:27:35;10.87;;;8.17;;
31018;SDS011;17689;45.610;5.858;2022-07-23T05:30:01;10.77;;;7.80;;
31018;SDS011;17689;45.610;5.858;2022-07-23T05:32:28;9.17;;;8.20;;
31018;SDS011;17689;45.610;5.858;2022-07-23T05:34:54;8.67;;;7.80;;
31018;SDS011;17689;45.610;5.858;2022-07-23T05:37:20;10.37;;;7.57;;
31018;SDS011;17689;45.610;5.858;2022-07-23T05:39:46;10.67;;;8.40;;
31018;SDS011;17689;45.610;5.858;2022-07-23T05:42:12;11.40;;;8.13;;
31018;SDS011;17689;45.610;5.858;2022-07-23T05:44:38;9.37;;;7.70;;
31018;SDS011;17689;45.610;5.858;2022-07-23T05:47:05;10.57;;;8.03;;
31018;SDS011;17689;45.610;5.858;2022-07-23T05:49:31;9.27;;;8.37;;
31018;SDS011;17689;45.610;5.858;2022-07-23T05:51:57;9.80;;;8.40;;
31018;SDS011;17689;45.610;5.858;2022-07-23T05:54:24;10.17;;;8.80;;
31018;SDS011;17689;45.610;5.858;2022-07-23T05:56:50;9.73;;;8.67;;
31018;SDS011;17689;45.610;5.858;2022-07-23T05:59:17;9.37;;;8.47;;
31018;SDS011;17689;45.610;5.858;2022-07-23T06:01:43;10.23;;;8.83;;
31018;SDS011;17689;45.610;5.858;2022-07-23T06:04:09;9.20;;;8.30;;
31018;SDS011;17689;45.610;5.858;2022-07-23T06:06:36;9.40;;;8.47;;
31018;SDS011;17689;45.610;5.858;2022-07-23T06:09:02;10.13;;;8.50;;
31018;SDS011;17689;45.610;5.858;2022-07-23T06:11:28;10.73;;;8.70;;
31018;SDS011;17689;45.610;5.858;2022-07-23T06:13:55;10.20;;;9.20;;
31018;SDS011;17689;45.610;5.858;2022-07-23T06:16:21;11.63;;;9.47;;
31018;SDS011;17689;45.610;5.858;2022-07-23T06:18:47;11.73;;;10.27;;
31018;SDS011;17689;45.610;5.858;2022-07-23T06:21:13;12.60;;;10.20;;
31018;SDS011;17689;45.610;5.858;2022-07-23T06:23:39;11.07;;;10.00;;
31018;SDS011;17689;45.610;5.858;2022-07-23T06:26:06;11.43;;;9.63;;
31018;SDS011;17689;45.610;5.858;2022-07-23T06:28:32;10.63;;;9.67;;
31018;SDS011;17689;45.610;5.858;2022-07-23T06:30:58;10.73;;;9.73;;
31018;SDS011;17689;45.610;5.858;2022-07-23T06:33:25;12.33;;;10.07;;
31018;SDS011;17689;45.610;5.858;2022-07-23T06:35:51;11.23;;;10.03;;
31018;SDS011;17689;45.610;5.858;2022-07-23T06:38:17;11.17;;;10.07;;
31018;SDS011;17689;45.610;5.858;2022-07-23T06:40:43;12.47;;;10.50;;
31018;SDS011;17689;45.610;5.858;2022-07-23T06:43:10;11.77;;;10.00;;
31018;SDS011;17689;45.610;5.858;2022-07-23T06:45:36;12.80;;;9.63;;
31018;SDS011;17689;45.610;5.858;2022-07-23T06:48:02;12.23;;;10.03;;
31018;SDS011;17689;45.610;5.858;2022-07-23T06:50:29;13.77;;;10.20;;
31018;SDS011;17689;45.610;5.858;2022-07-23T06:52:55;11.37;;;9.77;;
31018;SDS011;17689;45.610;5.858;2022-07-23T06:55:22;11.23;;;9.70;;
31018;SDS011;17689;45.610;5.858;2022-07-23T06:57:48;11.00;;;9.90;;
31018;SDS011;17689;45.610;5.858;2022-07-23T07:00:14;11.13;;;10.03;;
31018;SDS011;17689;45.610;5.858;2022-07-23T07:02:40;10.70;;;9.73;;
31018;SDS011;17689;45.610;5.858;2022-07-23T07:05:06;12.57;;;10.83;;
31018;SDS011;17689;45.610;5.858;2022-07-23T07:07:33;12.57;;;10.27;;
31018;SDS011;17689;45.610;5.858;2022-07-23T07:10:00;10.80;;;9.70;;
31018;SDS011;17689;45.610;5.858;2022-07-23T07:12:26;11.70;;;10.60;;
31018;SDS011;17689;45.610;5.858;2022-07-23T07:14:53;12.13;;;11.10;;
31018;SDS011;17689;45.610;5.858;2022-07-23T07:17:19;12.23;;;11.13;;
31018;SDS011;17689;45.610;5.858;2022-07-23T07:19:45;12.97;;;10.40;;
31018;SDS011;17689;45.610;5.858;2022-07-23T07:22:11;12.47;;;11.30;;
31018;SDS011;17689;45.610;5.858;2022-07-23T07:24:37;12.80;;;11.50;;
31018;SDS011;17689;45.610;5.858;2022-07-23T07:27:03;12.43;;;11.23;;
31018;SDS011;17689;45.610;5.858;2022-07-23T07:29:30;11.07;;;10.07;;
31018;SDS011;17689;45.610;5.858;2022-07-23T07:31:56;12.90;;;10.77;;
31018;SDS011;17689;45.610;5.858;2022-07-23T07:34:22;11.17;;;10.17;;
31018;SDS011;17689;45.610;5.858;2022-07-23T07:36:49;11.63;;;10.43;;
31018;SDS011;17689;45.610;5.858;2022-07-23T07:39:15;14.07;;;11.67;;
31018;SDS011;17689;45.610;5.858;2022-07-23T07:41:42;12.67;;;11.37;;
31018;SDS011;17689;45.610;5.858;2022-07-23T07:44:08;12.07;;;10.73;;
31018;SDS011;17689;45.610;5.858;2022-07-23T07:46:34;12.13;;;10.90;;
31018;SDS011;17689;45.610;5.858;2022-07-23T07:49:00;12.73;;;10.83;;
31018;SDS011;17689;45.610;5.858;2022-07-23T07:51:27;12.23;;;11.03;;
31018;SDS011;17689;45.610;5.858;2022-07-23T07:53:54;12.13;;;10.90;;
31018;SDS011;17689;45.610;5.858;2022-07-23T07:56:20;12.57;;;11.23;;
31018;SDS011;17689;45.610;5.858;2022-07-23T07:58:46;15.57;;;11.20;;
31018;SDS011;17689;45.610;5.858;2022-07-23T08:01:12;12.17;;;10.90;;
31018;SDS011;17689;45.610;5.858;2022-07-23T08:03:39;12.13;;;11.00;;
31018;SDS011;17689;45.610;5.858;2022-07-23T08:06:05;13.47;;;10.83;;
31018;SDS011;17689;45.610;5.858;2022-07-23T08:08:31;11.87;;;9.77;;
31018;SDS011;17689;45.610;5.858;2022-07-23T08:10:58;11.57;;;10.37;;
31018;SDS011;17689;45.610;5.858;2022-07-23T08:13:24;11.63;;;10.47;;
31018;SDS011;17689;45.610;5.858;2022-07-23T08:15:51;12.27;;;10.50;;
31018;SDS011;17689;45.610;5.858;2022-07-23T08:18:18;12.37;;;11.17;;
31018;SDS011;17689;45.610;5.858;2022-07-23T08:20:44;12.40;;;11.27;;
31018;SDS011;17689;45.610;5.858;2022-07-23T08:23:10;11.07;;;10.07;;
31018;SDS011;17689;45.610;5.858;2022-07-23T08:25:38;11.70;;;10.50;;
31018;SDS011;17689;45.610;5.858;2022-07-23T08:28:05;11.20;;;10.10;;
31018;SDS011;17689;45.610;5.858;2022-07-23T08:30:31;13.13;;;10.93;;
31018;SDS011;17689;45.610;5.858;2022-07-23T08:32:59;13.47;;;10.97;;
31018;SDS011;17689;45.610;5.858;2022-07-23T08:35:30;12.23;;;11.10;;
31018;SDS011;17689;45.610;5.858;2022-07-23T08:37:57;13.27;;;11.97;;
31018;SDS011;17689;45.610;5.858;2022-07-23T08:40:25;11.53;;;10.50;;
31018;SDS011;17689;45.610;5.858;2022-07-23T08:42:52;15.50;;;11.70;;
31018;SDS011;17689;45.610;5.858;2022-07-23T08:45:19;12.13;;;10.87;;
31018;SDS011;17689;45.610;5.858;2022-07-23T08:47:49;11.77;;;9.90;;
31018;SDS011;17689;45.610;5.858;2022-07-23T08:50:15;11.10;;;10.00;;
31018;SDS011;17689;45.610;5.858;2022-07-23T08:52:42;11.57;;;10.57;;
31018;SDS011;17689;45.610;5.858;2022-07-23T08:55:08;11.20;;;10.23;;
31018;SDS011;17689;45.610;5.858;2022-07-23T08:57:34;11.30;;;10.20;;
31018;SDS011;17689;45.610;5.858;2022-07-23T09:00:01;12.23;;;10.97;;
31018;SDS011;17689;45.610;5.858;2022-07-23T09:02:27;11.70;;;10.60;;
31018;SDS011;17689;45.610;5.858;2022-07-23T09:04:54;11.77;;;10.67;;
31018;SDS011;17689;45.610;5.858;2022-07-23T09:07:20;12.60;;;11.30;;
31018;SDS011;17689;45.610;5.858;2022-07-23T09:09:46;12.60;;;11.10;;
31018;SDS011;17689;45.610;5.858;2022-07-23T09:12:12;12.10;;;10.77;;
31018;SDS011;17689;45.610;5.858;2022-07-23T09:17:12;13.30;;;11.90;;
31018;SDS011;17689;45.610;5.858;2022-07-23T09:19:39;12.07;;;10.87;;
31018;SDS011;17689;45.610;5.858;2022-07-23T09:30:13;11.57;;;10.47;;
31018;SDS011;17689;45.610;5.858;2022-07-23T09:32:40;11.90;;;10.70;;
31018;SDS011;17689;45.610;5.858;2022-07-23T09:35:06;11.87;;;10.70;;
31018;SDS011;17689;45.610;5.858;2022-07-23T09:37:33;11.40;;;10.37;;
31018;SDS011;17689;45.610;5.858;2022-07-23T09:40:06;11.27;;;10.17;;
31018;SDS011;17689;45.610;5.858;2022-07-23T09:42:33;10.87;;;9.80;;
31018;SDS011;17689;45.610;5.858;2022-07-23T09:45:00;11.47;;;10.33;;
31018;SDS011;17689;45.610;5.858;2022-07-23T09:47:31;10.67;;;9.53;;
31018;SDS011;17689;45.610;5.858;2022-07-23T09:49:58;20.57;;;10.60;;
31018;SDS011;17689;45.610;5.858;2022-07-23T09:52:28;11.83;;;10.73;;
31018;SDS011;17689;45.610;5.858;2022-07-23T09:55:02;11.03;;;9.93;;
31018;SDS011;17689;45.610;5.858;2022-07-23T09:57:29;11.20;;;10.20;;
31018;SDS011;17689;45.610;5.858;2022-07-23T09:59:58;11.00;;;9.90;;
31018;SDS011;17689;45.610;5.858;2022-07-23T10:02:24;13.80;;;10.57;;
31018;SDS011;17689;45.610;5.858;2022-07-23T10:04:51;10.80;;;9.90;;
31018;SDS011;17689;45.610;5.858;2022-07-23T10:07:19;11.40;;;10.23;;
31018;SDS011;17689;45.610;5.858;2022-07-23T10:09:46;11.37;;;10.27;;
31018;SDS011;17689;45.610;5.858;2022-07-23T10:12:13;11.13;;;9.50;;
31018;SDS011;17689;45.610;5.858;2022-07-23T10:14:58;10.53;;;9.30;;
31018;SDS011;17689;45.610;5.858;2022-07-23T10:17:25;10.77;;;9.77;;
31018;SDS011;17689;45.610;5.858;2022-07-23T10:19:53;9.67;;;8.77;;
31018;SDS011;17689;45.610;5.858;2022-07-23T10:22:20;10.53;;;9.27;;
31018;SDS011;17689;45.610;5.858;2022-07-23T10:27:47;9.90;;;9.00;;
31018;SDS011;17689;45.610;5.858;2022-07-23T10:35:33;10.00;;;9.13;;
31018;SDS011;17689;45.610;5.858;2022-07-23T10:40:35;9.60;;;8.80;;
31018;SDS011;17689;45.610;5.858;2022-07-23T10:43:01;10.23;;;9.20;;
31018;SDS011;17689;45.610;5.858;2022-07-23T10:45:38;9.53;;;8.63;;
31018;SDS011;17689;45.610;5.858;2022-07-23T10:50:40;9.50;;;8.60;;
31018;SDS011;17689;45.610;5.858;2022-07-23T10:55:48;11.00;;;8.50;;
31018;SDS011;17689;45.610;5.858;2022-07-23T10:58:23;9.00;;;8.10;;
31018;SDS011;17689;45.610;5.858;2022-07-23T11:01:30;9.73;;;8.83;;
31018;SDS011;17689;45.610;5.858;2022-07-23T11:03:56;10.33;;;8.00;;
31018;SDS011;17689;45.610;5.858;2022-07-23T11:06:23;9.27;;;8.33;;
31018;SDS011;17689;45.610;5.858;2022-07-23T11:09:18;8.93;;;8.13;;
31018;SDS011;17689;45.610;5.858;2022-07-23T11:11:36;9.90;;;8.80;;
31018;SDS011;17689;45.610;5.858;2022-07-23T11:14:02;8.97;;;8.17;;
31018;SDS011;17689;45.610;5.858;2022-07-23T11:19:31;9.50;;;8.60;;
31018;SDS011;17689;45.610;5.858;2022-07-23T11:22:33;8.80;;;8.00;;
31018;SDS011;17689;45.610;5.858;2022-07-23T11:24:59;9.43;;;8.40;;
31018;SDS011;17689;45.610;5.858;2022-07-23T11:27:38;8.80;;;8.00;;
31018;SDS011;17689;45.610;5.858;2022-07-23T11:30:05;8.73;;;8.00;;
31018;SDS011;17689;45.610;5.858;2022-07-23T11:32:33;10.83;;;8.67;;
31018;SDS011;17689;45.610;5.858;2022-07-23T11:35:02;8.70;;;7.97;;
31018;SDS011;17689;45.610;5.858;2022-07-23T11:37:32;9.17;;;8.30;;
31018;SDS011;17689;45.610;5.858;2022-07-23T11:40:00;11.27;;;8.50;;
31018;SDS011;17689;45.610;5.858;2022-07-23T11:42:26;9.20;;;8.40;;
31018;SDS011;17689;45.610;5.858;2022-07-23T11:44:53;9.90;;;7.97;;
31018;SDS011;17689;45.610;5.858;2022-07-23T11:47:23;15.47;;;8.73;;
31018;SDS011;17689;45.610;5.858;2022-07-23T11:49:53;9.50;;;8.50;;
31018;SDS011;17689;45.610;5.858;2022-07-23T11:52:20;9.13;;;8.33;;
31018;SDS011;17689;45.610;5.858;2022-07-23T11:57:16;8.50;;;7.80;;
31018;SDS011;17689;45.610;5.858;2022-07-23T11:59:43;8.60;;;7.90;;
31018;SDS011;17689;45.610;5.858;2022-07-23T12:02:11;8.87;;;7.97;;
31018;SDS011;17689;45.610;5.858;2022-07-23T12:04:42;9.00;;;8.20;;
31018;SDS011;17689;45.610;5.858;2022-07-23T12:09:54;9.87;;;8.97;;
31018;SDS011;17689;45.610;5.858;2022-07-23T12:12:21;9.87;;;8.87;;
31018;SDS011;17689;45.610;5.858;2022-07-23T12:14:51;9.33;;;8.47;;
31018;SDS011;17689;45.610;5.858;2022-07-23T12:17:18;9.60;;;8.73;;
31018;SDS011;17689;45.610;5.858;2022-07-23T12:19:45;10.27;;;9.27;;
31018;SDS011;17689;45.610;5.858;2022-07-23T12:22:11;9.83;;;8.83;;
31018;SDS011;17689;45.610;5.858;2022-07-23T12:27:24;8.00;;;7.30;;
31018;SDS011;17689;45.610;5.858;2022-07-23T12:29:51;9.37;;;8.47;;
31018;SDS011;17689;45.610;5.858;2022-07-23T12:32:20;9.43;;;8.60;;
31018;SDS011;17689;45.610;5.858;2022-07-23T12:35:03;9.77;;;8.47;;
31018;SDS011;17689;45.610;5.858;2022-07-23T12:37:36;9.03;;;8.17;;
31018;SDS011;17689;45.610;5.858;2022-07-23T12:42:48;8.83;;;7.87;;
31018;SDS011;17689;45.610;5.858;2022-07-23T12:45:15;11.37;;;8.30;;
31018;SDS011;17689;45.610;5.858;2022-07-23T12:47:51;9.53;;;8.10;;
31018;SDS011;17689;45.610;5.858;2022-07-23T12:50:35;9.33;;;8.43;;
31018;SDS011;17689;45.610;5.858;2022-07-23T12:53:05;8.43;;;7.73;;
31018;SDS011;17689;45.610;5.858;2022-07-23T12:55:31;8.77;;;7.90;;
31018;SDS011;17689;45.610;5.858;2022-07-23T12:58:14;8.70;;;8.00;;
31018;SDS011;17689;45.610;5.858;2022-07-23T13:03:20;8.93;;;8.03;;
31018;SDS011;17689;45.610;5.858;2022-07-23T13:05:46;8.93;;;8.20;;
31018;SDS011;17689;45.610;5.858;2022-07-23T13:08:12;8.97;;;8.07;;
31018;SDS011;17689;45.610;5.858;2022-07-23T13:10:39;10.83;;;8.43;;
31018;SDS011;17689;45.610;5.858;2022-07-23T13:13:09;8.73;;;7.83;;
31018;SDS011;17689;45.610;5.858;2022-07-23T13:15:35;9.27;;;8.37;;
31018;SDS011;17689;45.610;5.858;2022-07-23T13:18:02;9.50;;;8.57;;
31018;SDS011;17689;45.610;5.858;2022-07-23T13:20:28;9.87;;;8.00;;
31018;SDS011;17689;45.610;5.858;2022-07-23T13:22:56;9.33;;;8.50;;
31018;SDS011;17689;45.610;5.858;2022-07-23T13:25:23;9.27;;;8.40;;
31018;SDS011;17689;45.610;5.858;2022-07-23T13:27:49;10.13;;;8.33;;
31018;SDS011;17689;45.610;5.858;2022-07-23T13:30:15;9.27;;;7.97;;
31018;SDS011;17689;45.610;5.858;2022-07-23T13:32:41;8.63;;;7.83;;
31018;SDS011;17689;45.610;5.858;2022-07-23T13:35:08;9.03;;;8.17;;
31018;SDS011;17689;45.610;5.858;2022-07-23T13:37:34;9.10;;;8.20;;
31018;SDS011;17689;45.610;5.858;2022-07-23T13:40:01;9.23;;;8.43;;
31018;SDS011;17689;45.610;5.858;2022-07-23T13:42:27;9.07;;;8.27;;
31018;SDS011;17689;45.610;5.858;2022-07-23T13:44:53;9.00;;;8.20;;
31018;SDS011;17689;45.610;5.858;2022-07-23T13:47:19;8.80;;;7.90;;
31018;SDS011;17689;45.610;5.858;2022-07-23T13:49:46;9.40;;;8.10;;
31018;SDS011;17689;45.610;5.858;2022-07-23T13:52:12;11.43;;;8.40;;
31018;SDS011;17689;45.610;5.858;2022-07-23T13:54:38;9.10;;;8.20;;
31018;SDS011;17689;45.610;5.858;2022-07-23T13:57:04;10.57;;;8.30;;
31018;SDS011;17689;45.610;5.858;2022-07-23T13:59:30;8.77;;;7.97;;
31018;SDS011;17689;45.610;5.858;2022-07-23T14:01:57;8.47;;;7.77;;
31018;SDS011;17689;45.610;5.858;2022-07-23T14:04:23;9.10;;;8.20;;
31018;SDS011;17689;45.610;5.858;2022-07-23T14:06:49;9.00;;;8.10;;
31018;SDS011;17689;45.610;5.858;2022-07-23T14:09:16;9.00;;;8.20;;
31018;SDS011;17689;45.610;5.858;2022-07-23T14:11:42;8.87;;;8.03;;
31018;SDS011;17689;45.610;5.858;2022-07-23T14:14:08;8.90;;;8.10;;
31018;SDS011;17689;45.610;5.858;2022-07-23T14:16:35;8.90;;;8.00;;
31018;SDS011;17689;45.610;5.858;2022-07-23T14:19:01;8.67;;;7.87;;
31018;SDS011;17689;45.610;5.858;2022-07-23T14:21:27;8.53;;;7.73;;
31018;SDS011;17689;45.610;5.858;2022-07-23T14:23:54;9.17;;;8.47;;
31018;SDS011;17689;45.610;5.858;2022-07-23T14:26:21;8.80;;;8.00;;
31018;SDS011;17689;45.610;5.858;2022-07-23T14:28:47;8.93;;;7.57;;
31018;SDS011;17689;45.610;5.858;2022-07-23T14:31:14;8.93;;;8.13;;
31018;SDS011;17689;45.610;5.858;2022-07-23T14:33:40;8.97;;;8.17;;
31018;SDS011;17689;45.610;5.858;2022-07-23T14:36:08;8.77;;;7.90;;
31018;SDS011;17689;45.610;5.858;2022-07-23T14:38:35;8.63;;;7.83;;
31018;SDS011;17689;45.610;5.858;2022-07-23T14:41:01;8.43;;;7.73;;
31018;SDS011;17689;45.610;5.858;2022-07-23T14:43:32;9.30;;;8.50;;
31018;SDS011;17689;45.610;5.858;2022-07-23T14:45:58;9.73;;;8.73;;
31018;SDS011;17689;45.610;5.858;2022-07-23T14:48:25;9.07;;;8.27;;
31018;SDS011;17689;45.610;5.858;2022-07-23T14:50:51;9.37;;;8.43;;
31018;SDS011;17689;45.610;5.858;2022-07-23T14:53:17;8.60;;;7.87;;
31018;SDS011;17689;45.610;5.858;2022-07-23T14:55:44;9.73;;;8.77;;
31018;SDS011;17689;45.610;5.858;2022-07-23T14:58:10;8.53;;;7.83;;
31018;SDS011;17689;45.610;5.858;2022-07-23T15:00:36;9.87;;;8.67;;
31018;SDS011;17689;45.610;5.858;2022-07-23T15:03:02;8.63;;;7.93;;
31018;SDS011;17689;45.610;5.858;2022-07-23T15:05:35;10.23;;;8.77;;
31018;SDS011;17689;45.610;5.858;2022-07-23T15:08:01;8.90;;;8.00;;
31018;SDS011;17689;45.610;5.858;2022-07-23T15:10:28;8.70;;;7.90;;
31018;SDS011;17689;45.610;5.858;2022-07-23T15:12:55;9.33;;;8.53;;
31018;SDS011;17689;45.610;5.858;2022-07-23T15:15:21;9.07;;;8.17;;
31018;SDS011;17689;45.610;5.858;2022-07-23T15:17:47;9.83;;;8.73;;
31018;SDS011;17689;45.610;5.858;2022-07-23T15:20:14;9.13;;;8.33;;
31018;SDS011;17689;45.610;5.858;2022-07-23T15:22:40;10.63;;;9.10;;
31018;SDS011;17689;45.610;5.858;2022-07-23T15:25:06;9.60;;;8.80;;